Time;durP1;ratioP1;P1;durP2;ratioP2;P2;SDS_P1;SDS_P2;PMS_P1;PMS_P2;Temp;Humidity;BMP_temperature;BMP_pressure;BME280_temperature;BME280_humidity;BME280_pressure;Samples;Min_cycle;Max_cycle;Signal;HPM_P1;HPM_P2
2022/11/22 00:01:59;;;;;;;0.82;0.40;;;6.70;91.80;;;;;;5053947;28;20037;-77
2022/11/22 00:04:24;;;;;;;0.40;0.40;;;6.70;91.80;;;;;;5054116;28;20124;-75
2022/11/22 00:06:50;;;;;;;0.50;0.43;;;6.70;91.80;;;;;;5053706;28;20478;-75
2022/11/22 00:14:22;;;;;;;0.50;0.50;;;6.70;91.90;;;;;;5051895;28;20496;-76
2022/11/22 00:16:47;;;;;;;0.82;0.38;;;6.70;91.90;;;;;;5051783;28;20048;-75
2022/11/22 00:19:13;;;;;;;0.77;0.43;;;6.80;91.90;;;;;;5053692;28;20053;-75
2022/11/22 00:21:39;;;;;;;0.65;0.50;;;6.70;91.90;;;;;;5053592;28;20063;-75
2022/11/22 00:24:04;;;;;;;0.90;0.60;;;6.70;91.90;;;;;;5051478;28;20503;-75
2022/11/22 00:26:30;;;;;;;1.17;0.60;;;6.70;91.90;;;;;;5051438;28;20373;-76
2022/11/22 00:28:56;;;;;;;0.75;0.47;;;6.70;91.90;;;;;;4984282;28;20401;-76
2022/11/22 00:31:22;;;;;;;0.52;0.52;;;6.80;91.90;;;;;;5053484;28;20585;-76
2022/11/22 00:33:47;;;;;;;1.05;0.75;;;6.80;91.90;;;;;;5017314;28;20042;-76
2022/11/22 00:36:15;;;;;;;0.88;0.60;;;6.80;91.90;;;;;;5053181;28;20041;-76
2022/11/22 00:38:42;;;;;;;0.90;0.80;;;6.80;91.80;;;;;;4984826;28;20034;-76
2022/11/22 00:41:08;;;;;;;3.15;0.90;;;6.80;91.80;;;;;;5051483;28;20086;-76
2022/11/22 00:43:33;;;;;;;1.27;0.90;;;6.90;91.80;;;;;;5050773;28;20041;-76
2022/11/22 00:45:59;;;;;;;0.80;0.75;;;7.00;91.80;;;;;;5033520;28;20037;-77
2022/11/22 00:48:25;;;;;;;0.70;0.63;;;6.90;91.80;;;;;;5018587;28;20504;-76
2022/11/22 00:50:51;;;;;;;1.00;0.70;;;6.80;91.80;;;;;;5053109;28;20137;-76
2022/11/22 00:53:16;;;;;;;1.20;0.47;;;6.90;91.80;;;;;;5033343;28;20059;-76
2022/11/22 00:55:44;;;;;;;0.85;0.60;;;7.00;91.80;;;;;;5049514;28;20508;-76
2022/11/22 00:58:09;;;;;;;0.85;0.60;;;6.90;91.80;;;;;;5052702;28;20527;-76
2022/11/22 01:00:35;;;;;;;0.65;0.50;;;6.90;91.80;;;;;;5052786;28;20029;-76
2022/11/22 01:03:01;;;;;;;1.30;0.57;;;6.90;91.80;;;;;;5049654;28;20033;-76
2022/11/22 01:05:26;;;;;;;1.10;0.65;;;6.90;91.90;;;;;;5053018;28;20112;-76
2022/11/22 01:07:53;;;;;;;0.57;0.57;;;6.90;91.90;;;;;;5050475;28;20147;-76
2022/11/22 01:10:18;;;;;;;1.73;0.70;;;6.90;91.90;;;;;;5049951;28;20048;-76
2022/11/22 01:12:47;;;;;;;1.08;0.63;;;6.90;91.90;;;;;;5049267;28;20044;-76
2022/11/22 01:15:13;;;;;;;0.93;0.50;;;6.90;91.90;;;;;;5015969;28;20041;-76
2022/11/22 01:17:39;;;;;;;0.85;0.52;;;6.90;91.90;;;;;;5052498;28;20443;-76
2022/11/22 01:20:05;;;;;;;2.28;0.70;;;6.80;91.90;;;;;;5052476;28;20033;-76
2022/11/22 01:22:30;;;;;;;0.85;0.70;;;6.90;91.90;;;;;;5052152;28;20049;-76
2022/11/22 01:24:56;;;;;;;1.08;0.70;;;6.80;91.90;;;;;;5050001;28;21343;-76
2022/11/22 01:27:22;;;;;;;1.15;0.80;;;6.90;92.00;;;;;;5033439;28;20052;-76
2022/11/22 01:29:48;;;;;;;0.73;0.60;;;6.90;92.00;;;;;;5052448;28;20045;-76
2022/11/22 01:32:13;;;;;;;1.77;0.60;;;6.90;91.90;;;;;;5034120;28;20041;-76
2022/11/22 01:34:39;;;;;;;0.45;0.40;;;6.90;91.90;;;;;;5050366;28;20063;-76
2022/11/22 01:37:05;;;;;;;0.70;0.60;;;6.90;91.90;;;;;;5052465;28;20060;-76
2022/11/22 01:39:30;;;;;;;1.10;0.80;;;6.90;91.90;;;;;;5050400;28;20029;-76
2022/11/22 01:41:56;;;;;;;1.20;0.77;;;6.90;91.90;;;;;;5049997;28;20041;-76
2022/11/22 01:44:27;;;;;;;1.10;0.85;;;7.00;91.90;;;;;;4985481;28;20095;-76
2022/11/22 01:46:59;;;;;;;1.25;0.90;;;6.90;91.90;;;;;;5052332;28;20473;-76
2022/11/22 01:49:30;;;;;;;1.05;0.63;;;6.90;91.90;;;;;;5052240;28;20037;-77
2022/11/22 01:52:03;;;;;;;1.95;0.70;;;6.90;91.80;;;;;;5049645;28;20045;-76
2022/11/22 01:54:32;;;;;;;0.75;0.60;;;7.00;91.90;;;;;;5033904;28;20067;-76
2022/11/22 01:57:06;;;;;;;1.40;0.73;;;7.00;91.90;;;;;;5050461;28;20071;-76
2022/11/22 01:59:36;;;;;;;0.65;0.60;;;7.00;91.90;;;;;;5017785;28;20408;-76
2022/11/22 02:02:03;;;;;;;0.85;0.70;;;6.80;91.90;;;;;;5033102;28;20041;-77
2022/11/22 02:04:31;;;;;;;0.98;0.70;;;6.80;91.90;;;;;;5051928;28;20040;-77
2022/11/22 02:07:06;;;;;;;0.73;0.70;;;6.80;91.90;;;;;;5049470;28;20056;-76
2022/11/22 02:09:33;;;;;;;1.10;0.75;;;6.80;92.00;;;;;;5050749;28;20051;-76
2022/11/22 02:12:01;;;;;;;1.25;0.65;;;6.80;92.00;;;;;;5049502;28;20106;-76
2022/11/22 02:14:28;;;;;;;0.73;0.50;;;6.80;92.00;;;;;;5049128;28;20396;-76
2022/11/22 02:16:54;;;;;;;0.90;0.43;;;6.80;92.00;;;;;;5051893;28;20377;-77
2022/11/22 02:19:42;;;;;;;1.45;0.80;;;6.70;92.00;;;;;;5031628;28;20499;-77
2022/11/22 02:22:29;;;;;;;0.80;0.80;;;6.80;92.00;;;;;;4974133;28;20473;-76
2022/11/22 02:25:05;;;;;;;1.88;0.77;;;6.80;92.00;;;;;;4987091;28;20479;-76
2022/11/22 02:27:30;;;;;;;0.70;0.60;;;6.80;92.00;;;;;;4990500;28;20447;-76
2022/11/22 02:29:56;;;;;;;1.75;0.80;;;6.90;91.90;;;;;;4990302;28;20087;-76
2022/11/22 02:32:21;;;;;;;1.70;0.60;;;6.90;91.90;;;;;;4973939;28;20046;-76
2022/11/22 02:34:49;;;;;;;0.60;0.60;;;6.90;91.90;;;;;;4990141;28;20034;-76
2022/11/22 02:37:21;;;;;;;1.33;0.80;;;6.80;91.90;;;;;;4974181;28;20074;-76
2022/11/22 02:39:49;;;;;;;1.02;0.60;;;6.80;92.00;;;;;;4990137;28;20081;-76
2022/11/22 02:42:15;;;;;;;1.40;0.80;;;6.90;91.90;;;;;;4973792;28;20511;-76
2022/11/22 02:44:41;;;;;;;1.30;0.73;;;7.00;91.90;;;;;;4990348;28;20074;-76
2022/11/22 02:47:07;;;;;;;1.00;0.77;;;6.90;91.90;;;;;;4989988;28;20129;-76
2022/11/22 02:49:32;;;;;;;1.73;0.90;;;6.90;91.90;;;;;;4973484;28;20053;-76
2022/11/22 02:51:58;;;;;;;2.50;1.05;;;6.90;92.20;;;;;;4974655;28;20050;-76
2022/11/22 02:54:23;;;;;;;3.03;0.90;;;6.80;91.80;;;;;;5049775;28;20090;-75
2022/11/22 02:56:49;;;;;;;1.90;0.85;;;6.90;91.90;;;;;;5051263;28;20033;-76
2022/11/22 02:59:15;;;;;;;1.67;0.80;;;6.90;91.90;;;;;;5051254;28;20037;-75
2022/11/22 03:01:42;;;;;;;1.83;0.80;;;6.90;91.90;;;;;;5049965;28;20033;-75
2022/11/22 03:04:07;;;;;;;3.03;0.82;;;6.90;91.90;;;;;;5051080;28;20045;-76
2022/11/22 03:06:33;;;;;;;1.90;0.70;;;6.90;91.90;;;;;;5048312;28;20665;-76
2022/11/22 03:08:59;;;;;;;1.52;0.80;;;6.90;91.90;;;;;;5046148;28;20037;-75
2022/11/22 03:11:24;;;;;;;1.67;0.80;;;6.90;91.90;;;;;;5045774;28;20044;-76
2022/11/22 03:13:51;;;;;;;1.58;0.90;;;6.90;91.90;;;;;;5050321;28;20041;-76
2022/11/22 03:16:16;;;;;;;1.55;0.90;;;6.90;91.90;;;;;;5052132;28;20029;-75
2022/11/22 03:18:42;;;;;;;1.10;0.60;;;6.90;91.90;;;;;;5051682;28;20499;-76
2022/11/22 03:21:09;;;;;;;1.02;0.60;;;6.90;91.90;;;;;;5035349;28;20041;-75
2022/11/22 03:23:35;;;;;;;1.02;0.70;;;6.80;91.90;;;;;;5053918;28;20488;-76
2022/11/22 03:26:09;;;;;;;2.17;0.77;;;6.80;91.90;;;;;;5051394;28;20071;-76
2022/11/22 03:28:35;;;;;;;1.40;0.68;;;6.80;91.90;;;;;;5051777;28;20029;-76
2022/11/22 03:31:05;;;;;;;0.98;0.60;;;6.80;91.90;;;;;;5054156;28;20485;-76
2022/11/22 03:33:30;;;;;;;0.50;0.50;;;6.80;92.00;;;;;;5054042;28;20510;-76
2022/11/22 03:35:56;;;;;;;1.00;0.50;;;6.80;92.00;;;;;;5053849;28;20116;-76
2022/11/22 03:38:22;;;;;;;0.68;0.60;;;6.70;92.00;;;;;;5052034;28;20388;-76
2022/11/22 03:40:48;;;;;;;1.17;0.60;;;6.80;92.00;;;;;;5034619;28;20033;-76
2022/11/22 03:43:13;;;;;;;0.93;0.52;;;6.70;92.00;;;;;;5054189;28;20055;-76
2022/11/22 03:45:44;;;;;;;0.90;0.63;;;6.70;92.00;;;;;;5053595;28;20037;-76
2022/11/22 03:48:09;;;;;;;1.97;0.80;;;6.70;92.00;;;;;;5051944;28;20151;-75
2022/11/22 03:50:35;;;;;;;2.05;0.70;;;6.70;92.00;;;;;;5053909;28;20127;-76
2022/11/22 03:53:01;;;;;;;1.35;0.68;;;6.70;92.00;;;;;;5050874;28;20049;-75
2022/11/22 03:55:27;;;;;;;1.67;0.70;;;6.70;92.00;;;;;;5053547;28;20055;-75
2022/11/22 03:57:52;;;;;;;1.48;0.73;;;6.70;92.10;;;;;;5035127;28;20045;-76
2022/11/22 04:00:18;;;;;;;0.98;0.63;;;6.60;92.00;;;;;;5053524;28;20442;-77
2022/11/22 04:02:43;;;;;;;2.63;0.80;;;6.60;92.00;;;;;;5052051;28;20048;-76
2022/11/22 04:05:09;;;;;;;2.25;0.68;;;6.60;92.00;;;;;;5053618;28;20132;-76
2022/11/22 04:07:35;;;;;;;1.30;0.60;;;6.60;92.00;;;;;;5050915;28;20029;-77
2022/11/22 04:10:00;;;;;;;2.45;0.80;;;6.60;92.00;;;;;;5053682;28;20439;-76
2022/11/22 04:12:29;;;;;;;2.13;0.63;;;6.50;92.00;;;;;;5051455;28;20072;-77
2022/11/22 04:17:39;;;;;;;1.90;0.65;;;6.50;92.00;;;;;;5053484;28;20435;-76
2022/11/22 04:22:43;;;;;;;0.60;0.40;;;6.50;92.00;;;;;;5052767;28;20102;-76
2022/11/22 04:25:16;;;;;;;0.77;0.55;;;6.40;92.00;;;;;;5053041;28;20436;-76
2022/11/22 04:27:42;;;;;;;1.40;0.70;;;6.40;92.00;;;;;;5053547;28;20045;-77
2022/11/22 04:30:08;;;;;;;1.17;0.68;;;6.40;92.10;;;;;;5050996;28;20431;-76
2022/11/22 04:32:48;;;;;;;1.75;0.52;;;6.40;92.10;;;;;;5053349;28;20048;-76
2022/11/22 04:35:17;;;;;;;2.70;0.70;;;6.30;92.00;;;;;;5053333;28;20037;-76
2022/11/22 04:37:49;;;;;;;0.85;0.40;;;6.40;92.00;;;;;;5053262;28;20037;-76
2022/11/22 04:40:15;;;;;;;2.33;0.52;;;6.30;92.00;;;;;;5053339;28;20508;-76
2022/11/22 04:45:25;;;;;;;3.50;1.00;;;6.30;92.10;;;;;;5047246;28;20566;-76
2022/11/22 04:47:58;;;;;;;0.60;0.40;;;6.30;92.10;;;;;;5051727;28;20072;-76
2022/11/22 04:53:05;;;;;;;3.25;0.60;;;6.20;92.00;;;;;;5045607;28;20041;-76
2022/11/22 04:55:31;;;;;;;1.38;0.50;;;6.20;92.10;;;;;;5052592;28;20037;-76
2022/11/22 04:57:56;;;;;;;2.15;0.60;;;6.20;92.10;;;;;;5052911;28;20083;-76
2022/11/22 05:00:22;;;;;;;1.23;0.47;;;6.20;92.10;;;;;;5052811;28;20032;-77
2022/11/22 05:02:48;;;;;;;1.98;0.70;;;6.10;92.10;;;;;;5052973;28;20041;-76
2022/11/22 05:05:13;;;;;;;1.42;0.63;;;6.10;92.10;;;;;;5052839;28;20090;-76
2022/11/22 05:07:39;;;;;;;2.78;0.55;;;6.10;92.10;;;;;;5049674;28;20128;-76
2022/11/22 05:10:05;;;;;;;1.05;0.60;;;6.10;92.10;;;;;;5052651;28;20125;-76
2022/11/22 05:12:31;;;;;;;0.50;0.40;;;6.10;92.10;;;;;;5052876;28;20151;-76
2022/11/22 05:14:56;;;;;;;1.98;0.60;;;6.00;92.10;;;;;;5033922;28;20508;-76
2022/11/22 05:17:22;;;;;;;0.90;0.50;;;6.00;92.10;;;;;;5038971;28;20038;-76
2022/11/22 05:19:48;;;;;;;0.85;0.40;;;6.10;92.10;;;;;;5050453;28;20111;-76
2022/11/22 05:22:13;;;;;;;2.63;0.50;;;5.90;92.10;;;;;;5050597;28;20106;-76
2022/11/22 05:24:39;;;;;;;1.23;0.70;;;6.00;92.40;;;;;;5049339;28;20033;-76
2022/11/22 05:27:05;;;;;;;1.38;0.63;;;5.90;92.10;;;;;;5052792;28;20045;-76
2022/11/22 05:29:30;;;;;;;1.50;0.50;;;5.90;92.10;;;;;;5050256;28;20052;-76
2022/11/22 05:31:56;;;;;;;1.23;0.47;;;5.90;92.10;;;;;;5018673;28;20136;-76
2022/11/22 05:34:21;;;;;;;1.73;0.60;;;5.80;92.10;;;;;;5052714;28;20416;-76
2022/11/22 05:36:47;;;;;;;1.70;0.50;;;5.80;92.10;;;;;;5051728;28;20033;-76
2022/11/22 05:39:13;;;;;;;2.25;0.60;;;5.80;92.10;;;;;;5049484;28;20040;-76
2022/11/22 05:41:54;;;;;;;1.65;0.32;;;5.80;92.20;;;;;;5052510;28;20392;-77
2022/11/22 05:44:20;;;;;;;0.50;0.30;;;5.60;92.10;;;;;;5052744;28;20049;-76
2022/11/22 05:46:46;;;;;;;0.60;0.30;;;5.70;92.20;;;;;;5050383;28;20056;-77
2022/11/22 05:49:12;;;;;;;1.05;0.43;;;5.60;92.20;;;;;;5052559;28;20389;-77
2022/11/22 05:51:37;;;;;;;1.92;0.40;;;5.60;92.20;;;;;;5050495;28;20052;-77
2022/11/22 05:54:03;;;;;;;0.77;0.30;;;5.60;92.20;;;;;;5052011;28;20425;-77
2022/11/22 05:56:29;;;;;;;2.67;0.70;;;5.60;92.20;;;;;;5050608;28;20033;-77
2022/11/22 05:58:54;;;;;;;2.28;0.50;;;5.60;92.20;;;;;;5050866;28;20362;-76
2022/11/22 06:01:22;;;;;;;1.50;0.45;;;5.60;92.20;;;;;;5049893;28;20039;-77
2022/11/22 06:03:49;;;;;;;1.55;0.50;;;5.50;92.20;;;;;;5049411;28;20061;-76
2022/11/22 06:06:15;;;;;;;1.10;0.50;;;5.60;92.20;;;;;;5049319;28;20037;-77
2022/11/22 06:08:43;;;;;;;0.70;0.45;;;5.60;92.20;;;;;;5050505;28;20033;-77
2022/11/22 06:11:14;;;;;;;1.10;0.40;;;5.50;92.20;;;;;;5034850;28;20032;-77
2022/11/22 06:13:42;;;;;;;0.47;0.30;;;5.50;92.20;;;;;;5050251;28;20477;-75
2022/11/22 06:16:09;;;;;;;1.10;0.50;;;5.40;92.20;;;;;;5049683;28;20033;-75
2022/11/22 06:18:35;;;;;;;1.63;0.32;;;5.50;92.20;;;;;;5051680;28;20382;-75
2022/11/22 06:21:03;;;;;;;0.52;0.40;;;5.40;92.20;;;;;;5051724;28;20063;-76
2022/11/22 06:23:29;;;;;;;0.98;0.45;;;5.40;92.20;;;;;;5046955;28;20048;-75
2022/11/22 06:25:58;;;;;;;1.77;0.65;;;5.40;92.20;;;;;;5051644;28;20063;-76
2022/11/22 06:28:25;;;;;;;1.95;0.60;;;5.40;92.10;;;;;;5051608;28;20049;-76
2022/11/22 06:30:51;;;;;;;2.38;0.70;;;5.40;92.10;;;;;;5049137;28;20044;-76
2022/11/22 06:33:16;;;;;;;0.70;0.40;;;5.40;92.10;;;;;;5048641;28;20041;-76
2022/11/22 06:35:42;;;;;;;0.77;0.50;;;5.40;92.10;;;;;;5049942;28;20052;-76
2022/11/22 06:38:08;;;;;;;1.23;0.60;;;5.40;92.10;;;;;;5049230;28;20132;-76
2022/11/22 06:40:33;;;;;;;1.58;0.68;;;5.30;92.10;;;;;;5051406;28;20146;-76
2022/11/22 06:42:59;;;;;;;1.40;0.50;;;5.30;92.10;;;;;;5050579;28;20033;-76
2022/11/22 06:45:24;;;;;;;1.40;0.47;;;5.20;92.10;;;;;;5049298;28;20041;-76
2022/11/22 06:47:50;;;;;;;0.63;0.47;;;5.30;92.10;;;;;;5033545;28;20513;-76
2022/11/22 06:50:16;;;;;;;0.45;0.25;;;5.30;92.10;;;;;;5051856;28;20470;-76
2022/11/22 06:52:41;;;;;;;0.38;0.30;;;5.20;92.10;;;;;;5054667;28;20076;-76
2022/11/22 06:55:07;;;;;;;0.85;0.57;;;5.10;92.10;;;;;;5055018;28;20033;-76
2022/11/22 06:57:33;;;;;;;0.65;0.25;;;5.10;92.20;;;;;;5055305;28;20033;-76
2022/11/22 06:59:58;;;;;;;1.52;0.30;;;5.00;92.30;;;;;;5045027;28;20033;-76
2022/11/22 07:02:24;;;;;;;0.63;0.32;;;5.00;92.30;;;;;;5053018;28;20029;-76
2022/11/22 07:04:50;;;;;;;1.50;0.60;;;5.00;92.30;;;;;;5051879;28;20144;-76
2022/11/22 07:07:15;;;;;;;0.45;0.30;;;5.00;92.40;;;;;;5036571;28;20041;-77
2022/11/22 07:09:41;;;;;;;0.80;0.50;;;4.90;92.40;;;;;;5020274;28;20095;-75
2022/11/22 07:12:24;;;;;;;0.45;0.38;;;4.90;92.40;;;;;;5051892;28;20128;-76
2022/11/22 07:14:53;;;;;;;1.70;0.45;;;4.90;92.40;;;;;;5035923;28;20044;-76
2022/11/22 07:17:33;;;;;;;0.50;0.25;;;4.90;92.40;;;;;;4985255;28;20140;-76
2022/11/22 07:20:06;;;;;;;0.68;0.40;;;4.90;92.40;;;;;;4972919;28;20050;-76
2022/11/22 07:22:32;;;;;;;0.40;0.30;;;4.90;92.40;;;;;;4896343;29;20045;-75
2022/11/22 07:32:16;;;;;;;0.20;0.20;;;4.90;92.40;;;;;;4838423;29;20562;-77
2022/11/22 07:35:15;;;;;;;0.32;0.28;;;4.90;92.30;;;;;;4808817;29;20078;-76
2022/11/22 07:38:17;;;;;;;1.13;0.47;;;5.00;92.30;;;;;;4797714;29;20050;-77
2022/11/22 08:16:58;;;;;;;0.98;0.43;;;5.60;91.60;;;;;;4732229;29;20859;-77
2022/11/22 08:19:34;;;;;;;1.50;0.60;;;5.60;91.50;;;;;;4763996;29;20067;-77
2022/11/22 08:22:15;;;;;;;2.63;0.85;;;5.70;91.50;;;;;;4790212;29;20129;-77
2022/11/22 08:24:41;;;;;;;1.47;0.60;;;5.70;91.50;;;;;;4809857;29;20072;-76
2022/11/22 08:27:15;;;;;;;1.38;0.55;;;5.70;91.50;;;;;;4860556;29;20614;-77
2022/11/22 08:30:14;;;;;;;1.90;0.50;;;5.70;91.50;;;;;;4884433;29;20049;-77
2022/11/22 08:36:10;;;;;;;0.60;0.50;;;5.80;91.50;;;;;;4801457;29;20039;-77
2022/11/22 08:44:40;;;;;;;0.90;0.50;;;5.80;91.40;;;;;;4766423;30;20555;-79
2022/11/22 08:47:16;;;;;;;1.95;0.43;;;5.90;91.50;;;;;;4751924;30;20055;-76
2022/11/22 08:50:20;;;;;;;0.77;0.50;;;6.00;91.50;;;;;;4780917;30;20048;-77
2022/11/22 08:56:53;;;;;;;2.45;0.63;;;6.00;91.40;;;;;;4784863;30;20101;-79
2022/11/22 08:59:18;;;;;;;1.45;0.60;;;6.10;91.40;;;;;;4785460;29;20107;-77
2022/11/22 09:02:13;;;;;;;1.85;0.75;;;6.20;91.30;;;;;;4800027;29;20454;-79
2022/11/22 09:05:19;;;;;;;0.68;0.50;;;6.20;91.30;;;;;;4813722;29;20044;-79
2022/11/22 09:08:13;;;;;;;1.08;0.40;;;6.20;91.30;;;;;;4816215;29;20041;-77
2022/11/22 09:18:18;;;;;;;1.33;0.70;;;6.30;91.20;;;;;;4750991;30;20407;-77
2022/11/22 09:21:39;;;;;;;1.48;0.52;;;6.30;91.10;;;;;;4769701;30;20051;-79
2022/11/22 09:27:45;;;;;;;1.23;0.60;;;6.40;91.10;;;;;;4739960;30;20071;-78
2022/11/22 09:33:40;;;;;;;1.38;0.43;;;6.50;91.10;;;;;;4708522;30;20096;-78
2022/11/22 09:52:59;;;;;;;1.25;0.60;;;6.60;91.10;;;;;;5207948;27;20136;-76
2022/11/22 10:07:51;;;;;;;0.70;0.40;;;6.90;90.90;;;;;;4966447;28;20054;-81
2022/11/22 10:11:02;;;;;;;2.28;0.90;;;7.10;90.80;;;;;;4949470;28;20047;-80
2022/11/22 10:14:36;;;;;;;2.28;0.70;;;7.00;90.80;;;;;;4883179;29;20048;-79
2022/11/22 10:20:41;;;;;;;1.67;0.70;;;7.10;90.70;;;;;;4882724;29;20117;-78
2022/11/22 10:23:27;;;;;;;0.95;0.73;;;7.10;90.60;;;;;;4854574;29;20048;-80
2022/11/22 10:26:04;;;;;;;1.42;0.80;;;7.10;90.60;;;;;;4837705;29;20033;-78
2022/11/22 10:29:13;;;;;;;1.45;0.60;;;7.20;90.60;;;;;;4906178;29;20064;-81
2022/11/22 10:42:56;;;;;;;2.42;0.70;;;7.40;90.60;;;;;;4870201;29;20053;-80
2022/11/22 10:45:37;;;;;;;1.17;0.55;;;7.50;90.50;;;;;;4852057;29;20046;-77
2022/11/22 11:04:18;;;;;;;1.38;0.65;;;7.60;90.50;;;;;;4784707;29;20405;-80
2022/11/22 11:07:31;;;;;;;1.80;0.70;;;7.60;90.50;;;;;;4788323;29;20512;-82
2022/11/22 11:16:22;;;;;;;1.00;0.50;;;7.60;90.50;;;;;;5130731;27;20132;-79
2022/11/22 11:22:50;;;;;;;0.50;0.40;;;7.50;90.50;;;;;;5106867;28;20059;-78
2022/11/22 11:25:39;;;;;;;0.73;0.35;;;7.60;90.50;;;;;;5054549;28;20041;-79
2022/11/22 11:28:28;;;;;;;0.75;0.50;;;7.70;90.60;;;;;;5063063;28;20033;-76
2022/11/22 11:31:01;;;;;;;0.80;0.52;;;7.60;90.60;;;;;;5065546;28;20037;-77
2022/11/22 12:32:41;;;;;;;0.47;0.20;;;8.30;89.90;;;;;;5980741;24;20020;-81
2022/11/22 12:35:30;;;;;;;0.30;0.30;;;8.20;89.80;;;;;;5895933;24;20044;-83
2022/11/22 12:38:47;;;;;;;0.88;0.35;;;8.20;89.80;;;;;;5896565;24;20025;-80
2022/11/22 12:41:45;;;;;;;1.35;0.60;;;8.20;89.80;;;;;;5875250;24;20026;-79
2022/11/22 13:11:03;;;;;;;0.20;0.20;;;8.00;89.90;;;;;;6010512;23;20024;-80
2022/11/22 13:14:08;;;;;;;0.20;0.20;;;8.00;89.90;;;;;;5873987;24;20564;-80
2022/11/22 13:21:25;;;;;;;0.45;0.32;;;8.10;89.90;;;;;;5803413;24;20019;-81
2022/11/22 13:23:56;;;;;;;0.40;0.40;;;8.10;89.70;;;;;;5707701;25;20355;-79
2022/11/22 13:38:17;;;;;;;0.10;0.10;;;8.20;89.50;;;;;;5607172;25;20521;-80
2022/11/22 13:40:50;;;;;;;0.45;0.30;;;8.10;89.40;;;;;;5631948;25;20072;-79
2022/11/22 13:43:48;;;;;;;0.20;0.20;;;8.10;90.00;;;;;;5785441;24;20022;-80
2022/11/22 13:46:44;;;;;;;0.63;0.25;;;8.10;89.60;;;;;;5930285;24;20093;-79
2022/11/22 14:00:39;;;;;;;0.10;0.10;;;8.20;89.50;;;;;;5654425;25;20519;-79
2022/11/22 14:11:04;;;;;;;0.10;0.10;;;8.10;89.50;;;;;;5660816;25;20025;-78
2022/11/22 15:22:55;;;;;;;0.10;0.10;;;8.20;89.70;;;;;;5731201;24;20078;-81
2022/11/22 15:56:33;;;;;;;0.20;0.20;;;8.10;89.60;;;;;;5783878;24;20027;-80
2022/11/22 16:07:30;;;;;;;0.20;0.20;;;8.00;89.70;;;;;;5840120;24;20025;-80
2022/11/22 16:09:56;;;;;;;0.20;0.20;;;8.00;89.70;;;;;;5818152;24;20027;-80
2022/11/22 16:12:35;;;;;;;0.25;0.25;;;8.00;89.80;;;;;;5842589;24;20466;-79
2022/11/22 16:15:35;;;;;;;0.10;0.10;;;7.90;90.20;;;;;;5823257;24;20079;-78
2022/11/22 16:18:24;;;;;;;0.10;0.10;;;7.90;90.00;;;;;;5869217;24;20014;-79
2022/11/22 16:20:58;;;;;;;0.10;0.10;;;7.90;90.00;;;;;;5875412;24;20047;-79
2022/11/22 16:23:26;;;;;;;0.03;0.03;;;7.80;90.00;;;;;;5934055;24;20024;-80
2022/11/22 16:25:55;;;;;;;0.10;0.10;;;7.90;90.10;;;;;;5901183;24;20021;-81
2022/11/22 16:28:28;;;;;;;0.10;0.10;;;7.80;90.10;;;;;;5900893;24;20039;-79
2022/11/22 16:30:56;;;;;;;0.30;0.30;;;7.80;90.10;;;;;;5928106;23;20043;-79
2022/11/22 16:33:22;;;;;;;0.10;0.10;;;7.80;90.50;;;;;;6093905;23;20032;-79
2022/11/22 16:35:53;;;;;;;0.20;0.20;;;7.80;90.20;;;;;;6132491;23;20089;-79
2022/11/22 16:38:19;;;;;;;0.25;0.25;;;7.80;90.20;;;;;;6148855;23;20021;-78
2022/11/22 16:40:45;;;;;;;0.15;0.15;;;7.70;90.30;;;;;;6149971;23;20446;-78
2022/11/22 17:13:15;;;;;;;0.20;0.20;;;7.60;90.40;;;;;;5149954;27;20123;-79
2022/11/22 17:15:57;;;;;;;0.20;0.20;;;7.50;90.70;;;;;;5044467;28;20041;-79
2022/11/22 17:18:31;;;;;;;;;;;7.70;90.50;;;;;;5009012;28;20403;-78
2022/11/22 17:20:59;;;;;;;0.20;0.20;;;7.60;90.50;;;;;;5009914;28;20433;-77
2022/11/22 17:32:04;;;;;;;0.20;0.20;;;7.70;90.60;;;;;;4926966;29;20054;-81
2022/11/22 17:34:54;;;;;;;0.40;0.40;;;7.60;90.60;;;;;;4909009;29;20518;-77
2022/11/22 17:37:28;;;;;;;0.32;0.32;;;7.70;90.60;;;;;;4864326;29;20049;-76
2022/11/22 17:39:56;;;;;;;0.20;0.20;;;7.80;90.60;;;;;;4890801;29;20044;-76
2022/11/22 17:42:22;;;;;;;0.30;0.30;;;7.70;90.60;;;;;;4872695;29;20041;-76
2022/11/22 17:44:49;;;;;;;0.45;0.38;;;7.70;90.60;;;;;;4842365;29;20041;-77
2022/11/22 17:47:14;;;;;;;0.30;0.30;;;7.70;90.70;;;;;;4858927;29;20033;-77
2022/11/22 17:49:40;;;;;;;0.40;0.40;;;7.80;90.70;;;;;;4896537;29;20052;-76
2022/11/22 17:52:06;;;;;;;0.50;0.50;;;7.70;90.70;;;;;;4896368;29;20076;-76
2022/11/22 17:54:31;;;;;;;0.88;0.73;;;7.80;90.70;;;;;;4899960;29;20076;-76
2022/11/22 17:56:57;;;;;;;0.90;0.57;;;7.70;90.70;;;;;;4907292;29;20104;-75
2022/11/22 17:59:22;;;;;;;0.80;0.65;;;7.70;90.70;;;;;;4903827;29;20143;-75
2022/11/22 18:01:48;;;;;;;0.55;0.50;;;7.70;90.70;;;;;;4944110;28;20044;-75
2022/11/22 18:04:16;;;;;;;0.50;0.47;;;7.80;90.70;;;;;;4948887;28;20147;-75
2022/11/22 18:06:41;;;;;;;0.50;0.50;;;7.80;90.80;;;;;;4978307;28;20159;-76
2022/11/22 18:09:07;;;;;;;0.82;0.70;;;7.70;90.70;;;;;;5099073;28;20039;-75
2022/11/22 18:11:33;;;;;;;0.75;0.63;;;7.80;90.80;;;;;;5129303;28;20083;-75
2022/11/22 18:13:58;;;;;;;0.60;0.60;;;7.80;90.80;;;;;;5109833;28;20044;-75
2022/11/22 18:16:27;;;;;;;0.70;0.70;;;7.90;90.80;;;;;;5110708;28;20046;-75
2022/11/22 18:18:54;;;;;;;0.73;0.73;;;7.80;90.80;;;;;;5129090;28;20039;-75
2022/11/22 18:21:19;;;;;;;0.70;0.70;;;7.80;90.80;;;;;;5111042;28;20054;-75
2022/11/22 18:23:45;;;;;;;0.45;0.45;;;7.80;90.80;;;;;;5118249;28;20051;-75
2022/11/22 18:26:11;;;;;;;1.05;0.73;;;7.80;90.80;;;;;;5096919;28;20051;-76
2022/11/22 18:28:38;;;;;;;0.60;0.60;;;7.80;90.80;;;;;;5115683;28;20543;-75
2022/11/22 18:31:04;;;;;;;0.80;0.70;;;7.80;90.80;;;;;;5115055;28;20132;-75
2022/11/22 18:33:30;;;;;;;0.50;0.50;;;7.80;90.80;;;;;;5115502;28;20063;-75
2022/11/22 18:36:01;;;;;;;0.60;0.43;;;7.90;90.90;;;;;;5096819;28;20449;-75
2022/11/22 18:38:27;;;;;;;0.40;0.38;;;7.90;90.90;;;;;;5115589;28;20051;-75
2022/11/22 18:40:53;;;;;;;0.45;0.45;;;7.90;90.90;;;;;;5096759;28;20097;-77
2022/11/22 18:43:19;;;;;;;0.30;0.30;;;7.80;90.90;;;;;;5096508;28;20043;-78
2022/11/22 18:45:44;;;;;;;0.60;0.40;;;7.90;91.00;;;;;;5061846;28;20447;-77
2022/11/22 18:48:10;;;;;;;1.00;0.47;;;7.70;90.90;;;;;;5096442;28;20134;-80
2022/11/22 18:50:36;;;;;;;0.63;0.50;;;7.80;91.00;;;;;;5114605;28;20048;-78
2022/11/22 18:53:02;;;;;;;0.52;0.52;;;8.00;91.00;;;;;;5079009;28;20120;-76
2022/11/22 18:55:27;;;;;;;0.70;0.57;;;7.80;91.00;;;;;;5096590;28;20477;-75
2022/11/22 18:57:53;;;;;;;0.52;0.52;;;7.80;90.90;;;;;;5114690;28;20378;-75
2022/11/22 19:00:20;;;;;;;1.40;0.50;;;7.90;91.00;;;;;;5114636;28;20044;-74
2022/11/22 19:02:46;;;;;;;0.43;0.43;;;7.90;91.00;;;;;;5114724;28;20073;-75
2022/11/22 19:05:12;;;;;;;0.75;0.45;;;7.90;91.00;;;;;;5114435;28;20048;-75
2022/11/22 19:07:38;;;;;;;0.50;0.43;;;7.90;91.00;;;;;;5114662;28;20036;-74
2022/11/22 19:10:04;;;;;;;1.02;0.50;;;7.90;91.00;;;;;;5114577;28;20512;-75
2022/11/22 19:12:30;;;;;;;0.65;0.40;;;7.90;91.00;;;;;;5114191;28;20036;-76
2022/11/22 19:14:55;;;;;;;0.38;0.38;;;8.00;91.00;;;;;;5093984;28;20497;-76
2022/11/22 19:17:21;;;;;;;1.05;0.55;;;7.90;91.00;;;;;;5096013;28;20052;-76
2022/11/22 19:19:46;;;;;;;2.13;0.60;;;7.90;91.00;;;;;;5095815;28;20122;-76
2022/11/22 19:22:12;;;;;;;1.00;0.55;;;8.00;91.00;;;;;;5114264;28;20047;-76
2022/11/22 19:24:38;;;;;;;1.17;0.50;;;7.90;91.00;;;;;;5095875;28;20044;-75
2022/11/22 19:27:04;;;;;;;1.25;0.68;;;7.90;91.00;;;;;;5114512;28;20043;-76
2022/11/22 19:29:30;;;;;;;0.80;0.60;;;8.00;91.00;;;;;;5096060;28;20089;-75
2022/11/22 19:31:58;;;;;;;1.17;0.60;;;8.00;91.00;;;;;;5114381;28;20040;-74
2022/11/22 19:35:03;;;;;;;0.38;0.38;;;8.00;91.00;;;;;;5076346;28;20046;-77
2022/11/22 19:37:41;;;;;;;0.60;0.43;;;8.00;91.10;;;;;;5031873;28;20418;-76
2022/11/22 19:40:28;;;;;;;0.20;0.20;;;8.00;91.10;;;;;;5031773;28;20034;-77
2022/11/22 19:43:17;;;;;;;0.65;0.50;;;7.90;91.20;;;;;;4996476;28;20129;-76
2022/11/22 19:46:25;;;;;;;0.90;0.40;;;8.00;91.20;;;;;;4956720;28;20038;-77
2022/11/22 19:49:14;;;;;;;0.40;0.40;;;7.90;91.20;;;;;;4925044;29;20072;-75
2022/11/22 20:03:05;;;;;;;0.65;0.50;;;7.90;91.20;;;;;;4611085;31;20047;-77
2022/11/22 20:05:31;;;;;;;0.88;0.55;;;7.90;91.20;;;;;;4517319;31;20051;-75
2022/11/22 20:07:59;;;;;;;1.08;0.80;;;7.90;91.20;;;;;;4540301;31;20048;-76
2022/11/22 20:10:33;;;;;;;0.70;0.65;;;8.00;91.20;;;;;;4552192;31;20181;-75
2022/11/22 20:16:16;;;;;;;1.63;0.95;;;7.80;91.20;;;;;;4543455;31;20049;-76
2022/11/22 20:18:45;;;;;;;1.55;0.90;;;8.00;91.20;;;;;;4546862;31;20160;-76
2022/11/22 20:21:13;;;;;;;1.77;1.00;;;8.00;91.20;;;;;;4560947;31;20057;-77
2022/11/22 20:23:39;;;;;;;0.60;0.50;;;8.00;91.20;;;;;;4613731;30;20051;-76
2022/11/22 20:26:28;;;;;;;1.15;0.75;;;8.00;91.30;;;;;;4626912;30;20508;-76
2022/11/22 20:29:00;;;;;;;1.25;0.57;;;8.00;91.30;;;;;;4645961;30;20054;-76
2022/11/22 20:31:28;;;;;;;3.15;1.10;;;8.00;91.30;;;;;;4812995;29;20054;-77
2022/11/22 20:34:03;;;;;;;1.67;0.73;;;8.10;91.30;;;;;;4901745;28;20046;-76
2022/11/22 20:36:32;;;;;;;1.92;1.00;;;8.10;91.30;;;;;;4961812;28;20044;-76
2022/11/22 20:38:58;;;;;;;2.17;0.80;;;8.30;91.30;;;;;;5050944;28;20055;-77